McFadden, Wyoming
Current Conditions -  °F | °C
As of 4:35 AM on Thursday 18 Dec 2014 (Local Time) from KEHY Reporting Station
Thunderstorm Thunderstorm  
Wind Chill: 14°   Ceiling: 3500
Heat Index: 28°   Visibility: 10mi
Dew Point: 18°   Wind: 23mph
Humidity: 64%   Direction: 260°W
Pressure: 29.94"   Gusts: NA
Location:  41.6691°N, 106.011°W
Report Text: KEHY 181135Z AUTO 26020KT 10SM TS BKN035 M02/M08 A2994 RMK AO2
Loading
Personal Weather Stations






























Interactive Weather Map New forecast layout! Learn more

10-Day Weather Forecast

Advertisements
Track Severe Weather on mobile